createdAt,value
2018-12-29T00:02:51.742Z,23.68
2018-12-29T00:08:46.759Z,23.62
2018-12-29T00:14:41.734Z,25.33
2018-12-29T00:20:36.808Z,27.32
2018-12-29T00:26:31.761Z,26.5
2018-12-29T00:32:26.740Z,24.61
2018-12-29T00:38:21.752Z,31.62
2018-12-29T00:44:16.740Z,24.27
2018-12-29T00:50:11.761Z,22.06
2018-12-29T00:56:06.761Z,18.36
2018-12-29T01:02:01.779Z,28.65
2018-12-29T01:07:56.752Z,28.08
2018-12-29T01:13:51.739Z,30.89
2018-12-29T01:19:46.750Z,29.67
2018-12-29T01:25:41.744Z,29.82
2018-12-29T01:31:36.767Z,25.58
2018-12-29T01:37:31.777Z,24.18
2018-12-29T01:43:26.768Z,21.51
2018-12-29T01:49:21.806Z,19.31
2018-12-29T01:55:16.801Z,24.62
2018-12-29T02:01:11.787Z,24.18
2018-12-29T02:07:06.783Z,24.37
2018-12-29T02:13:01.787Z,25.63
2018-12-29T02:18:56.775Z,26.03
2018-12-29T02:24:51.818Z,25.04
2018-12-29T02:30:46.829Z,26.84
2018-12-29T02:36:41.799Z,22.74
2018-12-29T02:42:36.817Z,23.58
2018-12-29T02:48:31.787Z,22.82
2018-12-29T02:54:26.842Z,23.33
2018-12-29T03:00:21.808Z,23.58
2018-12-29T03:06:16.855Z,23.45
2018-12-29T03:12:11.824Z,23.23
2018-12-29T03:18:06.886Z,22.57
2018-12-29T03:24:01.818Z,21.94
2018-12-29T03:29:56.876Z,22.3
2018-12-29T03:35:51.837Z,21.56
2018-12-29T03:41:46.894Z,21.35
2018-12-29T03:47:41.850Z,26.87
2018-12-29T03:53:36.855Z,27.27
2018-12-29T03:59:31.845Z,24.51
2018-12-29T04:05:26.845Z,20.63
2018-12-29T04:11:21.831Z,16.17
2018-12-29T04:17:16.828Z,15.3
2018-12-29T04:23:11.878Z,13.45
2018-12-29T04:29:06.866Z,11.39
2018-12-29T04:35:01.870Z,10.61
2018-12-29T04:40:56.896Z,8.74
2018-12-29T04:46:51.850Z,8.61
2018-12-29T04:52:46.852Z,9.78
2018-12-29T04:58:41.875Z,12.86
2018-12-29T05:04:36.860Z,11.53
2018-12-29T05:10:31.883Z,12.5
2018-12-29T05:16:26.906Z,12.39
2018-12-29T05:22:21.886Z,15.38
2018-12-29T05:28:16.907Z,16.66
2018-12-29T05:34:11.950Z,17.23
2018-12-29T05:40:06.882Z,23.59
2018-12-29T05:46:01.917Z,24.41
2018-12-29T05:51:56.898Z,16.21
2018-12-29T05:57:51.881Z,11.82
2018-12-29T06:03:46.947Z,14.4
2018-12-29T06:09:41.932Z,10.99
2018-12-29T06:15:36.941Z,7.78
2018-12-29T06:21:31.907Z,7.28
2018-12-29T06:27:26.938Z,9.62
2018-12-29T06:33:21.969Z,9.16
2018-12-29T06:39:16.927Z,11.97
2018-12-29T06:45:11.928Z,13.13
2018-12-29T06:51:06.917Z,13.96
2018-12-29T06:57:01.944Z,15.39
2018-12-29T07:02:56.937Z,15.62
2018-12-29T07:08:51.909Z,12.77
2018-12-29T07:14:46.930Z,9.97
2018-12-29T07:20:41.946Z,11.87
2018-12-29T07:26:36.955Z,13.77
2018-12-29T07:32:31.939Z,15.09
2018-12-29T07:38:26.975Z,16.65
2018-12-29T07:44:21.961Z,18.37
2018-12-29T07:50:16.957Z,16.71
2018-12-29T07:56:11.949Z,19.65
2018-12-29T08:02:06.990Z,22.1
2018-12-29T08:08:01.962Z,19.14
2018-12-29T08:13:57.051Z,21.22
2018-12-29T08:19:51.972Z,22.77
2018-12-29T08:25:47.011Z,23.46
2018-12-29T08:31:41.979Z,23.65
2018-12-29T08:37:36.992Z,23.99
2018-12-29T08:43:31.979Z,23.67
2018-12-29T08:49:27.055Z,19.83
2018-12-29T08:55:21.992Z,19.03
2018-12-29T09:01:16.980Z,23.2
2018-12-29T09:07:11.986Z,23.24
2018-12-29T09:13:07.003Z,24.55
2018-12-29T09:19:01.999Z,26.83
2018-12-29T09:24:57.019Z,28.41
2018-12-29T09:30:52.008Z,23.15
2018-12-29T09:36:46.996Z,24.83
2018-12-29T09:42:42.036Z,28.3
2018-12-29T09:48:37.026Z,26.81
2018-12-29T09:54:32.007Z,28.18
2018-12-29T10:00:27.011Z,28.73
2018-12-29T10:06:22.003Z,31.37
2018-12-29T10:12:17.085Z,26.02
2018-12-29T10:18:12.046Z,32.15
2018-12-29T10:24:07.026Z,30.37
2018-12-29T10:30:02.066Z,31.27
2018-12-29T10:35:57.052Z,32.43
2018-12-29T10:41:52.054Z,30.4
2018-12-29T10:47:47.037Z,33.36
2018-12-29T10:53:42.041Z,31.04
2018-12-29T10:59:37.063Z,29.42
2018-12-29T11:05:32.099Z,27.67
2018-12-29T11:11:27.086Z,36.44
2018-12-29T11:17:22.046Z,32.9
2018-12-29T11:23:17.080Z,32.78
2018-12-29T11:29:12.091Z,35.38
2018-12-29T11:35:07.066Z,49.5
2018-12-29T11:41:02.097Z,37.11
2018-12-29T11:46:57.081Z,31.89
2018-12-29T11:52:52.131Z,31.87
2018-12-29T11:58:47.069Z,33.81
2018-12-29T12:04:42.081Z,35.92
2018-12-29T12:10:37.073Z,34.23
2018-12-29T12:16:32.086Z,33.58
2018-12-29T12:22:27.105Z,36.13
2018-12-29T12:28:22.094Z,31.9
2018-12-29T12:34:17.121Z,33.91
2018-12-29T12:40:12.091Z,28.45
2018-12-29T12:46:07.101Z,28.62
2018-12-29T12:52:02.090Z,24
2018-12-29T12:57:57.114Z,28.8
2018-12-29T13:03:52.091Z,16.94
2018-12-29T13:09:47.117Z,27.1
2018-12-29T13:15:42.128Z,25.1
2018-12-29T13:21:37.129Z,26.68
2018-12-29T13:27:32.137Z,32.67
2018-12-29T13:33:27.113Z,29.65
2018-12-29T13:39:22.129Z,33.34
2018-12-29T13:45:17.195Z,30.47
2018-12-29T13:51:12.136Z,29.59
2018-12-29T13:57:07.198Z,31.42
2018-12-29T14:03:02.128Z,32.25
2018-12-29T14:08:57.142Z,33.01
2018-12-29T14:14:52.155Z,36.81
2018-12-29T14:20:47.185Z,30.73
2018-12-29T14:26:42.159Z,31.43
2018-12-29T14:32:37.169Z,30.09
2018-12-29T14:38:32.159Z,33.07
2018-12-29T14:44:27.169Z,35.62
2018-12-29T14:50:22.202Z,15.02
2018-12-29T14:56:17.154Z,33.38
2018-12-29T15:02:12.182Z,37.91
2018-12-29T15:08:07.198Z,37.88
2018-12-29T15:14:02.201Z,36.17
2018-12-29T15:19:57.166Z,38.96
2018-12-29T15:25:52.185Z,37.53
2018-12-29T15:31:47.190Z,40.13
2018-12-29T15:37:42.232Z,44.74
2018-12-29T15:43:37.189Z,45.7
2018-12-29T15:49:32.219Z,45.19
2018-12-29T15:55:27.208Z,43.91
2018-12-29T16:01:22.194Z,42.26
2018-12-29T16:07:17.203Z,44.05
2018-12-29T16:13:12.198Z,45.61
2018-12-29T16:19:07.222Z,44.17
2018-12-29T16:25:02.216Z,47.37
2018-12-29T16:30:57.222Z,46.49
2018-12-29T16:36:52.223Z,41.56
2018-12-29T16:42:47.864Z,49.29
2018-12-29T16:48:42.249Z,50.86
2018-12-29T16:54:37.225Z,53.73
2018-12-29T17:00:32.245Z,46.49
2018-12-29T17:06:27.259Z,45.64
2018-12-29T17:12:22.258Z,56.89
2018-12-29T17:18:17.263Z,56.92
2018-12-29T17:24:12.250Z,54.7
2018-12-29T17:30:07.284Z,43.6
2018-12-29T17:36:02.252Z,42.77
2018-12-29T17:41:57.254Z,12.32
2018-12-29T17:47:52.296Z,36.59
2018-12-29T17:53:48.064Z,41.45
2018-12-29T17:59:42.305Z,40.02
2018-12-29T18:05:37.276Z,41.07
2018-12-29T18:11:32.275Z,42.77
2018-12-29T18:17:27.267Z,44.5
2018-12-29T18:23:22.285Z,48.04
2018-12-29T18:29:17.287Z,54.78
2018-12-29T18:35:12.271Z,54.57
2018-12-29T18:41:07.286Z,65.65
2018-12-29T18:47:02.272Z,53.86
2018-12-29T18:52:57.294Z,44.32
2018-12-29T18:58:52.274Z,58.25
2018-12-29T19:04:47.336Z,49.97
2018-12-29T19:10:42.357Z,42.87
2018-12-29T19:16:37.301Z,48.64
2018-12-29T19:22:32.331Z,49.2
2018-12-29T19:28:27.318Z,53.36
2018-12-29T19:34:22.336Z,51.51
2018-12-29T19:40:17.348Z,48.86
2018-12-29T19:46:12.346Z,48.2
2018-12-29T19:52:07.313Z,83.69
2018-12-29T19:58:02.329Z,64.34
2018-12-29T20:03:57.334Z,53.75
2018-12-29T20:09:52.324Z,55.1
2018-12-29T20:16:10.686Z,52.44
2018-12-29T20:21:42.345Z,48.53
2018-12-29T20:27:37.346Z,55.41
2018-12-29T20:33:32.321Z,65.93
2018-12-29T20:39:27.385Z,43.05
2018-12-29T20:45:22.337Z,39.68
2018-12-29T20:51:17.356Z,47.71
2018-12-29T20:57:12.348Z,38.28
2018-12-29T21:03:07.403Z,42.73
2018-12-29T21:09:02.372Z,44.7
2018-12-29T21:14:57.371Z,40.13
2018-12-29T21:20:52.372Z,37.53
2018-12-29T21:26:47.370Z,46.66
2018-12-29T21:32:42.412Z,43.49
2018-12-29T21:38:37.382Z,43.77
2018-12-29T21:44:32.381Z,45.22
2018-12-29T21:50:27.741Z,39.74
2018-12-29T21:56:22.402Z,57.2
2018-12-29T22:02:17.408Z,53.9
2018-12-29T22:08:12.397Z,46.45
2018-12-29T22:14:07.410Z,43.91
2018-12-29T22:20:02.400Z,50.3
2018-12-29T22:25:57.397Z,45.77
2018-12-29T22:31:52.424Z,43.07
2018-12-29T22:37:47.406Z,45.26
2018-12-29T22:43:42.435Z,41.33
2018-12-29T22:49:37.404Z,43.24
2018-12-29T22:55:32.409Z,46.87
2018-12-29T23:01:27.471Z,45.54
2018-12-29T23:07:22.477Z,40.99
2018-12-29T23:13:17.438Z,38.57
2018-12-29T23:19:12.459Z,36.19
2018-12-29T23:25:07.463Z,37.48
2018-12-29T23:31:02.424Z,35.43
2018-12-29T23:36:57.479Z,43.67
2018-12-29T23:42:52.435Z,35.63
2018-12-29T23:48:47.477Z,36.73
2018-12-29T23:54:42.450Z,32.79
